createdAt,value
2023-04-07T00:00:04.029Z,12.89
2023-04-07T00:02:32.464Z,12.94
2023-04-07T00:05:00.462Z,12.30
2023-04-07T00:07:28.255Z,12.65
2023-04-07T00:09:56.127Z,12.48
2023-04-07T00:12:23.849Z,12.45
2023-04-07T00:14:51.561Z,12.80
2023-04-07T00:17:20.647Z,12.81
2023-04-07T00:19:48.345Z,12.76
2023-04-07T00:22:16.192Z,12.74
2023-04-07T00:24:43.852Z,12.76
2023-04-07T00:27:12.346Z,12.52
2023-04-07T00:29:40.030Z,13.12
2023-04-07T00:32:13.898Z,13.13
2023-04-07T00:34:42.943Z,12.28
2023-04-07T00:37:10.620Z,13.11
2023-04-07T00:39:38.360Z,12.63
2023-04-07T00:42:12.153Z,12.72
2023-04-07T00:44:39.814Z,12.61
2023-04-07T00:47:07.518Z,12.86
2023-04-07T00:49:35.353Z,12.66
2023-04-07T00:52:26.460Z,13.10
2023-04-07T00:54:55.404Z,13.43
2023-04-07T00:57:23.675Z,13.02
2023-04-07T00:59:51.731Z,12.96
2023-04-07T01:02:23.274Z,13.14
2023-04-07T01:04:57.548Z,13.19
2023-04-07T01:07:30.256Z,12.64
2023-04-07T01:10:00.863Z,13.27
2023-04-07T01:12:36.201Z,13.28
2023-04-07T01:18:07.582Z,13.71
2023-04-07T01:20:36.286Z,13.32
2023-04-07T01:23:08.148Z,13.43
2023-04-07T01:25:49.891Z,13.89
2023-04-07T01:28:44.807Z,13.86
2023-04-07T01:31:14.135Z,13.41
2023-04-07T01:33:45.385Z,13.20
2023-04-07T01:36:13.831Z,13.19
2023-04-07T01:38:42.291Z,12.63
2023-04-07T01:41:11.214Z,13.44
2023-04-07T01:43:39.102Z,13.84
2023-04-07T01:46:06.956Z,12.88
2023-04-07T01:48:37.246Z,13.69
2023-04-07T01:51:06.062Z,13.21
2023-04-07T01:53:34.120Z,13.25
2023-04-07T01:56:01.773Z,13.61
2023-04-07T01:58:29.438Z,12.91
2023-04-07T02:00:57.111Z,12.82
2023-04-07T02:03:27.534Z,13.08
2023-04-07T02:05:59.320Z,13.43
2023-04-07T02:08:30.538Z,13.76
2023-04-07T02:10:59.514Z,13.45
2023-04-07T02:13:27.656Z,13.62
2023-04-07T02:15:57.470Z,13.86
2023-04-07T02:18:26.454Z,13.50
2023-04-07T02:20:54.255Z,13.34
2023-04-07T02:23:23.403Z,14.17
2023-04-07T02:25:51.305Z,13.34
2023-04-07T02:28:18.942Z,13.45
2023-04-07T02:30:46.679Z,13.27
2023-04-07T02:33:14.350Z,13.99
2023-04-07T02:35:42.042Z,13.20
2023-04-07T02:38:09.702Z,13.34
2023-04-07T02:40:38.827Z,13.66
2023-04-07T02:43:06.503Z,13.89
2023-04-07T02:45:34.251Z,13.36
2023-04-07T02:48:02.010Z,13.75
2023-04-07T02:50:29.736Z,13.77
2023-04-07T02:52:57.386Z,13.45
2023-04-07T02:55:25.320Z,13.30
2023-04-07T02:57:54.355Z,13.74
2023-04-07T03:00:22.080Z,13.77
2023-04-07T03:02:49.933Z,13.94
2023-04-07T03:05:17.871Z,13.58
2023-04-07T03:07:45.574Z,13.79
2023-04-07T03:10:13.260Z,13.56
2023-04-07T03:12:41.008Z,13.67
2023-04-07T03:15:11.312Z,13.87
2023-04-07T03:17:39.030Z,13.81
2023-04-07T03:20:08.436Z,13.82
2023-04-07T03:22:36.133Z,13.69
2023-04-07T03:25:03.853Z,13.72
2023-04-07T03:27:31.516Z,13.45
2023-04-07T03:29:59.444Z,13.92
2023-04-07T03:32:28.572Z,13.43
2023-04-07T03:34:56.452Z,14.42
2023-04-07T03:37:24.156Z,14.10
2023-04-07T03:39:52.183Z,13.42
2023-04-07T03:42:19.947Z,13.90
2023-04-07T03:44:47.634Z,14.06
2023-04-07T03:47:15.436Z,13.66
2023-04-07T03:49:44.474Z,13.20
2023-04-07T03:52:12.130Z,13.84
2023-04-07T03:54:39.771Z,14.05
2023-04-07T03:57:07.421Z,13.96
2023-04-07T03:59:35.222Z,14.15
2023-04-07T04:02:03.061Z,13.67
2023-04-07T04:04:30.770Z,13.66
2023-04-07T04:06:59.849Z,13.68
2023-04-07T04:09:27.597Z,13.36
2023-04-07T04:11:56.381Z,14.00
2023-04-07T04:14:24.094Z,13.63
2023-04-07T04:16:51.792Z,13.75
2023-04-07T04:19:19.510Z,13.90
2023-04-07T04:21:47.235Z,13.79
2023-04-07T04:24:16.288Z,13.62
2023-04-07T04:26:43.905Z,13.90
2023-04-07T04:29:11.577Z,13.71
2023-04-07T04:31:39.273Z,13.68
2023-04-07T04:34:06.938Z,14.14
2023-04-07T04:36:35.623Z,14.19
2023-04-07T04:41:51.030Z,14.04
2023-04-07T04:44:18.723Z,13.36
2023-04-07T04:46:46.588Z,13.92
2023-04-07T04:49:15.753Z,14.27
2023-04-07T04:51:43.444Z,13.85
2023-04-07T04:54:11.143Z,14.15
2023-04-07T04:56:38.787Z,13.92
2023-04-07T04:59:07.863Z,13.84
2023-04-07T05:01:35.525Z,13.48
2023-04-07T05:04:03.452Z,13.85
2023-04-07T05:06:31.337Z,13.50
2023-04-07T05:08:58.970Z,13.53
2023-04-07T05:11:26.697Z,13.75
2023-04-07T05:13:54.413Z,13.85
2023-04-07T05:16:23.559Z,13.95
2023-04-07T05:18:51.255Z,12.60
2023-04-07T05:21:20.192Z,13.44
2023-04-07T05:23:47.878Z,14.13
2023-04-07T05:26:38.148Z,13.74
2023-04-07T05:29:05.992Z,13.56
2023-04-07T05:31:37.310Z,14.13
2023-04-07T05:34:05.108Z,13.70
2023-04-07T05:36:32.818Z,13.63
2023-04-07T05:39:00.960Z,13.61
2023-04-07T05:41:34.771Z,14.32
2023-04-07T05:44:02.417Z,14.89
2023-04-07T05:46:30.266Z,14.31
2023-04-07T05:49:02.622Z,14.33
2023-04-07T05:51:35.079Z,14.13
2023-04-07T05:54:03.950Z,14.01
2023-04-07T05:56:31.601Z,14.36
2023-04-07T05:59:00.659Z,14.27
2023-04-07T06:01:28.413Z,14.21
2023-04-07T06:03:56.392Z,14.02
2023-04-07T06:06:26.341Z,14.21
2023-04-07T06:08:54.012Z,14.36
2023-04-07T06:11:22.022Z,13.94
2023-04-07T06:13:49.951Z,13.80
2023-04-07T06:16:19.033Z,13.74
2023-04-07T06:18:47.311Z,14.70
2023-04-07T06:21:15.655Z,14.13
2023-04-07T06:23:44.794Z,14.47
2023-04-07T06:26:13.136Z,14.44
2023-04-07T06:28:41.285Z,14.67
2023-04-07T06:31:09.287Z,14.49
2023-04-07T06:33:37.037Z,13.96
2023-04-07T06:36:05.128Z,13.64
2023-04-07T06:38:32.795Z,14.13
2023-04-07T06:43:51.371Z,14.34
2023-04-07T06:46:19.226Z,14.43
2023-04-07T06:48:49.026Z,15.09
2023-04-07T06:51:16.705Z,15.03
2023-04-07T06:53:44.437Z,14.45
2023-04-07T06:56:13.040Z,14.72
2023-04-07T06:58:41.117Z,14.34
2023-04-07T07:01:10.386Z,14.68
2023-04-07T07:03:41.327Z,14.93
2023-04-07T07:06:09.139Z,15.24
2023-04-07T07:08:56.874Z,15.26
2023-04-07T07:11:24.526Z,14.33
2023-04-07T07:13:52.238Z,14.08
2023-04-07T07:16:23.895Z,15.14
2023-04-07T07:18:51.744Z,14.38
2023-04-07T07:21:20.044Z,14.25
2023-04-07T07:23:47.841Z,14.77
2023-04-07T07:26:15.621Z,14.72
2023-04-07T07:28:43.291Z,14.98
2023-04-07T07:31:13.119Z,14.30
2023-04-07T07:33:44.153Z,14.22
2023-04-07T07:36:12.011Z,14.98
2023-04-07T07:38:40.031Z,14.68
2023-04-07T07:41:07.920Z,14.94
2023-04-07T07:43:35.674Z,15.08
2023-04-07T07:46:03.341Z,14.93
2023-04-07T07:48:31.360Z,14.31
2023-04-07T07:51:00.544Z,14.97
2023-04-07T07:53:28.228Z,14.68
2023-04-07T07:55:56.132Z,14.97
2023-04-07T07:58:23.855Z,15.20
2023-04-07T08:00:51.544Z,15.30
2023-04-07T08:03:20.042Z,14.93
2023-04-07T08:05:48.539Z,14.54
2023-04-07T08:10:59.113Z,15.59
2023-04-07T08:13:26.747Z,14.45
2023-04-07T08:15:54.813Z,14.96
2023-04-07T08:18:23.138Z,15.26
2023-04-07T08:20:51.697Z,15.58
2023-04-07T08:23:20.832Z,15.34
2023-04-07T08:25:48.568Z,15.31
2023-04-07T08:28:16.232Z,14.30
2023-04-07T08:30:43.870Z,14.32
2023-04-07T08:33:11.523Z,15.02
2023-04-07T08:35:39.161Z,14.09
2023-04-07T08:38:08.608Z,14.39
2023-04-07T08:40:37.665Z,13.94
2023-04-07T08:43:09.209Z,14.85
2023-04-07T08:45:40.480Z,15.68
2023-04-07T08:48:16.058Z,15.88
2023-04-07T08:50:45.491Z,16.33
2023-04-07T08:53:14.614Z,14.81
2023-04-07T08:55:43.795Z,15.52
2023-04-07T08:58:13.286Z,15.73
2023-04-07T09:00:43.008Z,15.61
2023-04-07T09:03:11.991Z,15.07
2023-04-07T09:05:40.541Z,15.70
2023-04-07T09:08:08.192Z,15.72
2023-04-07T09:10:36.134Z,15.69
2023-04-07T09:13:05.492Z,16.23
2023-04-07T09:15:33.477Z,15.68
2023-04-07T09:18:01.276Z,16.19
2023-04-07T09:20:28.962Z,15.80
2023-04-07T09:22:56.589Z,15.76
2023-04-07T09:25:27.315Z,15.90
2023-04-07T09:27:57.002Z,15.26
2023-04-07T09:30:26.460Z,15.99
2023-04-07T09:32:54.339Z,15.67
2023-04-07T09:35:23.362Z,15.35
2023-04-07T09:38:04.940Z,15.65
2023-04-07T09:40:32.675Z,14.79
2023-04-07T09:43:00.598Z,15.38
2023-04-07T09:45:35.425Z,14.85
2023-04-07T09:48:07.422Z,15.49
2023-04-07T09:50:36.467Z,15.95
2023-04-07T09:53:04.848Z,15.66
2023-04-07T09:55:33.887Z,15.94
2023-04-07T09:58:01.841Z,15.78
2023-04-07T10:00:31.006Z,15.93
2023-04-07T10:02:59.122Z,15.64
2023-04-07T10:05:27.253Z,15.51
2023-04-07T10:07:55.402Z,15.35
2023-04-07T10:10:23.124Z,15.90
2023-04-07T10:12:51.580Z,16.27
2023-04-07T10:15:19.310Z,16.44
2023-04-07T10:17:49.394Z,15.23
2023-04-07T10:20:18.689Z,16.16
2023-04-07T10:22:48.434Z,16.14
2023-04-07T10:25:19.233Z,16.10
2023-04-07T10:27:51.492Z,16.05
2023-04-07T10:30:22.028Z,16.01
2023-04-07T10:32:52.595Z,15.84
2023-04-07T10:35:21.212Z,15.87
2023-04-07T10:38:15.032Z,15.22
2023-04-07T10:40:43.790Z,15.55
2023-04-07T10:43:12.105Z,15.85
2023-04-07T10:45:54.314Z,15.62
2023-04-07T10:48:23.932Z,15.97
2023-04-07T10:51:15.388Z,16.14
2023-04-07T10:54:16.271Z,16.37
2023-04-07T10:57:10.608Z,15.54
2023-04-07T10:59:39.762Z,16.43
2023-04-07T11:02:33.659Z,16.10
2023-04-07T11:05:03.842Z,15.74
2023-04-07T11:07:45.551Z,16.34
2023-04-07T11:10:15.926Z,17.17
2023-04-07T11:12:44.079Z,16.69
2023-04-07T11:15:18.915Z,17.01
2023-04-07T11:17:46.726Z,16.71
2023-04-07T11:20:16.026Z,16.41
2023-04-07T11:22:43.670Z,17.02
2023-04-07T11:25:23.097Z,17.08
2023-04-07T11:27:50.783Z,17.19
2023-04-07T11:30:19.614Z,16.71
2023-04-07T11:32:50.862Z,16.89
2023-04-07T11:35:20.008Z,17.18
2023-04-07T11:37:47.659Z,17.56
2023-04-07T11:40:33.432Z,17.44
2023-04-07T11:43:01.380Z,16.96
2023-04-07T11:45:29.103Z,16.90
2023-04-07T11:47:56.801Z,17.65
2023-04-07T11:50:42.691Z,17.52
2023-04-07T11:53:10.810Z,18.03
2023-04-07T11:55:38.496Z,17.20
2023-04-07T11:58:10.184Z,17.18
2023-04-07T12:00:38.629Z,17.25
2023-04-07T12:03:14.771Z,16.33
2023-04-07T12:05:46.990Z,17.36
2023-04-07T12:08:36.249Z,16.87
2023-04-07T12:11:05.506Z,17.08
2023-04-07T12:13:33.173Z,16.87
2023-04-07T12:16:01.521Z,17.54
2023-04-07T12:18:29.879Z,18.07
2023-04-07T12:20:59.164Z,16.82
2023-04-07T12:23:27.401Z,16.72
2023-04-07T12:25:55.070Z,16.58
2023-04-07T12:28:22.706Z,15.84
2023-04-07T12:30:50.315Z,16.06
2023-04-07T12:33:18.021Z,16.38
2023-04-07T12:35:45.775Z,15.62
2023-04-07T12:38:15.669Z,16.12
2023-04-07T12:40:43.833Z,15.62
2023-04-07T12:43:11.516Z,15.67
2023-04-07T12:45:39.281Z,16.28
2023-04-07T12:48:07.030Z,16.14
2023-04-07T12:50:36.340Z,16.30
2023-04-07T12:53:05.370Z,16.14
2023-04-07T12:55:35.688Z,16.78
2023-04-07T12:58:03.439Z,16.39
2023-04-07T13:00:31.511Z,16.87
2023-04-07T13:02:59.311Z,16.00
2023-04-07T13:05:27.461Z,16.88
2023-04-07T13:07:55.117Z,18.09
2023-04-07T13:10:22.765Z,17.02
2023-04-07T13:12:51.796Z,17.21
2023-04-07T13:15:19.431Z,15.98
2023-04-07T13:17:47.509Z,17.29
2023-04-07T13:23:21.455Z,17.20
2023-04-07T13:25:49.304Z,16.54
2023-04-07T13:28:20.984Z,17.79
2023-04-07T13:30:48.659Z,18.24
2023-04-07T13:33:16.298Z,17.90
2023-04-07T13:35:44.043Z,18.10
2023-04-07T13:38:11.918Z,18.57
2023-04-07T13:40:39.553Z,18.49
2023-04-07T13:43:07.883Z,17.73
2023-04-07T13:45:37.805Z,17.69
2023-04-07T13:48:05.729Z,18.94
2023-04-07T13:50:33.389Z,18.31
2023-04-07T13:53:01.044Z,18.36
2023-04-07T13:55:28.752Z,18.87
2023-04-07T13:57:56.509Z,18.44
2023-04-07T14:00:24.229Z,19.11
2023-04-07T14:02:53.416Z,18.84
2023-04-07T14:05:21.520Z,17.01
2023-04-07T14:07:49.597Z,17.69
2023-04-07T14:10:17.315Z,17.80
2023-04-07T14:12:44.930Z,18.36
2023-04-07T14:15:12.681Z,18.27
2023-04-07T14:17:40.498Z,17.87
2023-04-07T14:20:10.546Z,18.37
2023-04-07T14:22:38.185Z,17.68
2023-04-07T14:25:06.880Z,18.54
2023-04-07T14:27:34.539Z,18.46
2023-04-07T14:30:02.377Z,18.45
2023-04-07T14:32:30.402Z,18.01
2023-04-07T14:34:59.280Z,19.29
2023-04-07T14:37:28.896Z,18.56
2023-04-07T14:42:29.714Z,19.50
2023-04-07T14:44:57.917Z,19.68
2023-04-07T14:47:25.816Z,19.65
2023-04-07T14:49:53.900Z,18.80
2023-04-07T14:52:21.792Z,19.60
2023-04-07T14:54:51.101Z,19.12
2023-04-07T14:57:18.758Z,18.83
2023-04-07T14:59:46.419Z,18.85
2023-04-07T15:02:14.186Z,18.93
2023-04-07T15:04:42.032Z,18.36
2023-04-07T15:07:09.732Z,18.26
2023-04-07T15:09:37.393Z,18.25
2023-04-07T15:12:06.531Z,17.86
2023-04-07T15:14:34.455Z,18.55
2023-04-07T15:17:02.165Z,19.15
2023-04-07T15:19:29.924Z,18.55
2023-04-07T15:21:57.622Z,18.20
2023-04-07T15:24:25.460Z,18.96
2023-04-07T15:26:53.451Z,18.79
2023-04-07T15:29:22.472Z,18.85
2023-04-07T15:31:50.520Z,19.46
2023-04-07T15:34:18.255Z,18.20
2023-04-07T15:36:45.916Z,18.69
2023-04-07T15:39:13.582Z,19.13
2023-04-07T15:41:41.583Z,17.48
2023-04-07T15:44:09.234Z,18.46
2023-04-07T15:46:38.307Z,18.87
2023-04-07T15:49:05.979Z,17.80
2023-04-07T15:51:33.628Z,18.41
2023-04-07T15:54:01.303Z,18.33
2023-04-07T15:56:29.054Z,17.96
2023-04-07T15:58:56.704Z,18.57
2023-04-07T16:01:25.773Z,18.40
2023-04-07T16:03:55.378Z,18.58
2023-04-07T16:06:23.762Z,19.83
2023-04-07T16:08:51.563Z,18.24
2023-04-07T16:11:19.365Z,18.75
2023-04-07T16:13:47.137Z,18.27
2023-04-07T16:16:15.000Z,18.21
2023-04-07T16:18:42.888Z,18.54
2023-04-07T16:21:12.207Z,18.98
2023-04-07T16:23:40.081Z,18.19
2023-04-07T16:26:07.850Z,18.71
2023-04-07T16:28:35.620Z,19.14
2023-04-07T16:31:06.026Z,18.38
2023-04-07T16:33:33.710Z,19.00
2023-04-07T16:36:01.396Z,18.90
2023-04-07T16:38:30.605Z,18.85
2023-04-07T16:41:04.477Z,18.70
2023-04-07T16:43:32.654Z,18.59
2023-04-07T16:46:01.112Z,18.85
2023-04-07T16:48:29.530Z,19.22
2023-04-07T16:50:57.264Z,17.34
2023-04-07T16:53:25.063Z,17.63
2023-04-07T16:55:54.097Z,17.40
2023-04-07T16:58:21.755Z,18.05
2023-04-07T17:03:36.123Z,17.52
2023-04-07T17:06:05.674Z,17.52
2023-04-07T17:08:33.474Z,17.88
2023-04-07T17:11:02.614Z,18.21
2023-04-07T17:13:30.518Z,17.49
2023-04-07T17:15:58.339Z,17.47
2023-04-07T17:18:26.157Z,17.04
2023-04-07T17:20:53.791Z,16.90
2023-04-07T17:23:21.715Z,18.33
2023-04-07T17:25:49.942Z,17.15
2023-04-07T17:28:19.224Z,17.42
2023-04-07T17:30:47.236Z,16.27
2023-04-07T17:33:14.959Z,16.87
2023-04-07T17:35:42.723Z,17.14
2023-04-07T17:38:10.496Z,16.53
2023-04-07T17:40:38.126Z,16.57
2023-04-07T17:43:05.781Z,16.45
2023-04-07T17:45:34.831Z,17.24
2023-04-07T17:48:03.759Z,16.73
2023-04-07T17:50:32.028Z,16.57
2023-04-07T17:53:00.868Z,16.36
2023-04-07T17:55:29.115Z,16.36
2023-04-07T17:58:00.919Z,16.88
2023-04-07T18:00:29.101Z,16.23
2023-04-07T18:02:58.597Z,16.07
2023-04-07T18:05:26.707Z,16.82
2023-04-07T18:07:55.418Z,16.60
2023-04-07T18:10:23.218Z,17.32
2023-04-07T18:12:51.457Z,16.41
2023-04-07T18:15:19.152Z,16.34
2023-04-07T18:17:47.529Z,16.53
2023-04-07T18:20:18.100Z,16.65
2023-04-07T18:22:45.877Z,16.26
2023-04-07T18:25:13.807Z,16.25
2023-04-07T18:27:44.740Z,16.36
2023-04-07T18:30:12.907Z,15.97
2023-04-07T18:32:41.563Z,16.09
2023-04-07T18:35:10.088Z,15.42
2023-04-07T18:37:39.325Z,14.93
2023-04-07T18:40:08.455Z,15.93
2023-04-07T18:42:36.146Z,15.34
2023-04-07T18:45:04.085Z,14.37
2023-04-07T18:47:31.838Z,14.82
2023-04-07T18:49:59.608Z,14.70
2023-04-07T18:52:27.386Z,14.62
2023-04-07T18:54:57.828Z,14.94
2023-04-07T18:57:25.629Z,14.14
2023-04-07T18:59:54.003Z,14.05
2023-04-07T19:02:21.755Z,14.76
2023-04-07T19:04:49.526Z,14.57
2023-04-07T19:07:17.221Z,14.36
2023-04-07T19:09:45.353Z,14.50
2023-04-07T19:12:14.432Z,14.65
2023-04-07T19:14:42.167Z,14.29
2023-04-07T19:17:12.090Z,14.57
2023-04-07T19:19:39.918Z,14.21
2023-04-07T19:22:07.596Z,13.41
2023-04-07T19:24:36.110Z,14.13
2023-04-07T19:27:04.279Z,14.04
2023-04-07T19:29:35.302Z,13.93
2023-04-07T19:32:03.397Z,12.81
2023-04-07T19:34:31.331Z,13.73
2023-04-07T19:36:59.407Z,13.16
2023-04-07T19:39:27.156Z,13.16
2023-04-07T19:41:54.858Z,12.41
2023-04-07T19:44:22.588Z,12.81
2023-04-07T19:46:53.373Z,12.45
2023-04-07T19:49:21.704Z,12.94
2023-04-07T19:51:49.378Z,13.13
2023-04-07T19:54:17.461Z,12.93
2023-04-07T19:56:45.244Z,12.56
2023-04-07T19:59:14.810Z,12.87
2023-04-07T20:01:42.747Z,12.34
2023-04-07T20:04:11.906Z,12.74
2023-04-07T20:06:40.608Z,12.20
2023-04-07T20:09:08.305Z,12.63
2023-04-07T20:11:35.964Z,12.98
2023-04-07T20:14:03.840Z,12.68
2023-04-07T20:16:32.649Z,12.65
2023-04-07T20:19:00.630Z,11.94
2023-04-07T20:21:29.835Z,12.19
2023-04-07T20:23:57.469Z,12.47
2023-04-07T20:26:25.611Z,12.74
2023-04-07T20:28:53.434Z,12.73
2023-04-07T20:31:21.227Z,11.85
2023-04-07T20:33:49.213Z,12.46
2023-04-07T20:36:17.944Z,12.50
2023-04-07T20:38:48.606Z,13.09
2023-04-07T20:41:17.409Z,13.72
2023-04-07T20:43:45.178Z,13.93
2023-04-07T20:46:12.907Z,13.85
2023-04-07T20:48:40.559Z,13.76
2023-04-07T20:51:08.240Z,12.15
2023-04-07T20:53:36.248Z,11.65
2023-04-07T20:56:05.689Z,11.95
2023-04-07T20:58:33.574Z,12.00
2023-04-07T21:01:02.018Z,12.09
2023-04-07T21:03:30.887Z,12.08
2023-04-07T21:05:58.994Z,11.82
2023-04-07T21:08:26.653Z,11.75
2023-04-07T21:10:54.597Z,11.70
2023-04-07T21:13:25.935Z,11.52
2023-04-07T21:15:53.804Z,11.20
2023-04-07T21:18:21.521Z,11.75
2023-04-07T21:20:49.271Z,11.38
2023-04-07T21:23:17.018Z,11.57
2023-04-07T21:25:44.683Z,11.44
2023-04-07T21:28:12.396Z,11.42
2023-04-07T21:30:42.864Z,11.72
2023-04-07T21:33:11.119Z,11.75
2023-04-07T21:35:38.858Z,11.49
2023-04-07T21:38:06.529Z,11.32
2023-04-07T21:40:34.331Z,11.88
2023-04-07T21:43:01.981Z,11.77
2023-04-07T21:45:29.752Z,11.71
2023-04-07T21:47:58.927Z,12.20
2023-04-07T21:50:27.058Z,12.09
2023-04-07T21:52:54.778Z,11.83
2023-04-07T21:55:22.517Z,10.85
2023-04-07T21:57:51.392Z,10.62
2023-04-07T22:00:19.235Z,11.49
2023-04-07T22:02:47.107Z,10.42
2023-04-07T22:05:16.821Z,11.17
2023-04-07T22:07:45.563Z,11.43
2023-04-07T22:10:13.689Z,11.75
2023-04-07T22:12:41.471Z,11.83
2023-04-07T22:15:10.592Z,11.04
2023-04-07T22:17:39.922Z,10.27
2023-04-07T22:20:09.122Z,10.09
2023-04-07T22:22:38.328Z,9.93
2023-04-07T22:25:06.937Z,9.88
2023-04-07T22:27:35.373Z,9.98
2023-04-07T22:30:03.486Z,10.39
2023-04-07T22:32:31.357Z,11.03
2023-04-07T22:34:59.018Z,11.44
2023-04-07T22:37:27.222Z,11.51
2023-04-07T22:39:56.377Z,11.38
2023-04-07T22:42:24.042Z,11.64
2023-04-07T22:44:51.744Z,10.79
2023-04-07T22:47:19.723Z,10.57
2023-04-07T22:49:47.600Z,10.97
2023-04-07T22:52:15.604Z,10.98
2023-04-07T22:54:43.235Z,11.21
2023-04-07T22:57:12.258Z,10.09
2023-04-07T22:59:39.918Z,10.07
2023-04-07T23:02:07.709Z,10.10
2023-04-07T23:04:35.765Z,10.49
2023-04-07T23:07:03.434Z,10.81
2023-04-07T23:09:31.198Z,10.90
2023-04-07T23:11:58.905Z,10.51
2023-04-07T23:14:27.963Z,10.40
2023-04-07T23:16:56.182Z,10.09
2023-04-07T23:19:24.191Z,10.29
2023-04-07T23:21:52.396Z,10.72
2023-04-07T23:24:20.098Z,10.66
2023-04-07T23:26:47.749Z,10.18
2023-04-07T23:29:15.714Z,9.91
2023-04-07T23:31:44.779Z,8.96
2023-04-07T23:34:12.489Z,9.63
2023-04-07T23:36:40.669Z,9.86
2023-04-07T23:39:08.607Z,9.53
2023-04-07T23:41:36.251Z,9.61
2023-04-07T23:44:03.924Z,8.70
2023-04-07T23:46:31.649Z,9.26
2023-04-07T23:49:00.769Z,9.50
2023-04-07T23:51:28.793Z,9.74
2023-04-07T23:53:56.420Z,9.50
2023-04-07T23:56:24.129Z,10.14
2023-04-07T23:58:51.933Z,9.68
